sensor_id;sensor_type;location;lat;lon;timestamp;temperature;humidity
4487;DHT22;2256;48.740;9.106;2023-04-01T00:01:48;7.40;99.90
4487;DHT22;2256;48.740;9.106;2023-04-01T00:04:15;7.30;99.90
4487;DHT22;2256;48.740;9.106;2023-04-01T00:06:42;7.30;99.90
4487;DHT22;2256;48.740;9.106;2023-04-01T00:09:11;7.30;99.90
4487;DHT22;2256;48.740;9.106;2023-04-01T00:11:37;7.40;99.90
4487;DHT22;2256;48.740;9.106;2023-04-01T00:14:05;7.50;99.90
4487;DHT22;2256;48.740;9.106;2023-04-01T00:16:33;7.50;99.90
4487;DHT22;2256;48.740;9.106;2023-04-01T00:19:00;7.50;99.90
4487;DHT22;2256;48.740;9.106;2023-04-01T00:21:27;7.50;99.90
4487;DHT22;2256;48.740;9.106;2023-04-01T00:23:54;7.60;99.90
4487;DHT22;2256;48.740;9.106;2023-04-01T00:26:23;7.60;99.90
4487;DHT22;2256;48.740;9.106;2023-04-01T00:28:52;7.60;99.90
4487;DHT22;2256;48.740;9.106;2023-04-01T00:31:19;7.50;99.90
4487;DHT22;2256;48.740;9.106;2023-04-01T00:33:46;7.50;99.90
4487;DHT22;2256;48.740;9.106;2023-04-01T00:36:15;7.50;99.90
4487;DHT22;2256;48.740;9.106;2023-04-01T00:38:43;7.50;99.90
4487;DHT22;2256;48.740;9.106;2023-04-01T00:41:20;7.50;99.90
4487;DHT22;2256;48.740;9.106;2023-04-01T00:43:50;7.50;99.90
4487;DHT22;2256;48.740;9.106;2023-04-01T00:46:17;7.60;99.90
4487;DHT22;2256;48.740;9.106;2023-04-01T00:48:48;7.60;99.90
4487;DHT22;2256;48.740;9.106;2023-04-01T00:51:17;7.70;99.90
4487;DHT22;2256;48.740;9.106;2023-04-01T00:53:47;7.70;99.90
4487;DHT22;2256;48.740;9.106;2023-04-01T00:56:16;7.70;99.90
4487;DHT22;2256;48.740;9.106;2023-04-01T00:58:49;7.70;99.90
4487;DHT22;2256;48.740;9.106;2023-04-01T01:01:20;7.80;99.90
4487;DHT22;2256;48.740;9.106;2023-04-01T01:03:48;7.90;99.90
4487;DHT22;2256;48.740;9.106;2023-04-01T01:06:26;7.90;99.90
4487;DHT22;2256;48.740;9.106;2023-04-01T01:09:18;7.90;99.90
4487;DHT22;2256;48.740;9.106;2023-04-01T01:11:55;7.90;99.90
4487;DHT22;2256;48.740;9.106;2023-04-01T01:14:34;7.70;99.90
4487;DHT22;2256;48.740;9.106;2023-04-01T01:17:08;7.80;99.90
4487;DHT22;2256;48.740;9.106;2023-04-01T01:19:57;7.80;99.90
4487;DHT22;2256;48.740;9.106;2023-04-01T01:22:36;7.70;99.90
4487;DHT22;2256;48.740;9.106;2023-04-01T01:25:25;7.70;99.90
4487;DHT22;2256;48.740;9.106;2023-04-01T01:28:00;7.80;99.90
4487;DHT22;2256;48.740;9.106;2023-04-01T01:30:41;7.80;99.90
4487;DHT22;2256;48.740;9.106;2023-04-01T01:33:25;7.80;99.90
4487;DHT22;2256;48.740;9.106;2023-04-01T01:35:59;7.80;99.90
4487;DHT22;2256;48.740;9.106;2023-04-01T01:38:31;7.70;99.90
4487;DHT22;2256;48.740;9.106;2023-04-01T01:41:02;7.70;99.90
4487;DHT22;2256;48.740;9.106;2023-04-01T01:43:33;7.70;99.90
4487;DHT22;2256;48.740;9.106;2023-04-01T01:46:05;7.80;99.90
4487;DHT22;2256;48.740;9.106;2023-04-01T01:48:35;7.80;99.90
4487;DHT22;2256;48.740;9.106;2023-04-01T01:51:05;7.80;99.90
4487;DHT22;2256;48.740;9.106;2023-04-01T01:53:32;7.80;99.90
4487;DHT22;2256;48.740;9.106;2023-04-01T01:55:59;7.70;99.90
4487;DHT22;2256;48.740;9.106;2023-04-01T01:58:29;7.70;99.90
4487;DHT22;2256;48.740;9.106;2023-04-01T02:00:59;7.70;99.90
4487;DHT22;2256;48.740;9.106;2023-04-01T02:03:30;7.60;99.90
4487;DHT22;2256;48.740;9.106;2023-04-01T02:06:04;7.70;99.90
4487;DHT22;2256;48.740;9.106;2023-04-01T02:08:37;7.60;99.90
4487;DHT22;2256;48.740;9.106;2023-04-01T02:11:08;7.60;99.90
4487;DHT22;2256;48.740;9.106;2023-04-01T02:13:39;7.60;99.90
4487;DHT22;2256;48.740;9.106;2023-04-01T02:16:12;7.60;99.90
4487;DHT22;2256;48.740;9.106;2023-04-01T02:18:41;7.70;99.90
4487;DHT22;2256;48.740;9.106;2023-04-01T02:21:10;7.70;99.90
4487;DHT22;2256;48.740;9.106;2023-04-01T02:23:40;7.70;99.90
4487;DHT22;2256;48.740;9.106;2023-04-01T02:26:08;7.60;99.90
4487;DHT22;2256;48.740;9.106;2023-04-01T02:28:43;7.50;99.90
4487;DHT22;2256;48.740;9.106;2023-04-01T02:31:18;7.50;99.90
4487;DHT22;2256;48.740;9.106;2023-04-01T02:33:46;7.50;99.90
4487;DHT22;2256;48.740;9.106;2023-04-01T02:36:14;7.60;99.90
4487;DHT22;2256;48.740;9.106;2023-04-01T02:38:45;7.60;99.90
4487;DHT22;2256;48.740;9.106;2023-04-01T02:41:13;7.60;99.90
4487;DHT22;2256;48.740;9.106;2023-04-01T02:43:40;7.60;99.90
4487;DHT22;2256;48.740;9.106;2023-04-01T02:46:08;7.50;99.90
4487;DHT22;2256;48.740;9.106;2023-04-01T02:48:35;7.40;99.90
4487;DHT22;2256;48.740;9.106;2023-04-01T02:51:03;7.50;99.90
4487;DHT22;2256;48.740;9.106;2023-04-01T02:53:30;7.50;99.90
4487;DHT22;2256;48.740;9.106;2023-04-01T02:55:58;7.50;99.90
4487;DHT22;2256;48.740;9.106;2023-04-01T02:58:25;7.40;99.90
4487;DHT22;2256;48.740;9.106;2023-04-01T03:00:51;7.50;99.90
4487;DHT22;2256;48.740;9.106;2023-04-01T03:03:18;7.50;99.90
4487;DHT22;2256;48.740;9.106;2023-04-01T03:05:46;7.40;99.90
4487;DHT22;2256;48.740;9.106;2023-04-01T03:08:13;7.30;99.90
4487;DHT22;2256;48.740;9.106;2023-04-01T03:10:40;7.40;99.90
4487;DHT22;2256;48.740;9.106;2023-04-01T03:13:08;7.40;99.90
4487;DHT22;2256;48.740;9.106;2023-04-01T03:15:35;7.40;99.90
4487;DHT22;2256;48.740;9.106;2023-04-01T03:18:01;7.40;99.90
4487;DHT22;2256;48.740;9.106;2023-04-01T03:20:28;7.50;99.90
4487;DHT22;2256;48.740;9.106;2023-04-01T03:22:55;7.40;99.90
4487;DHT22;2256;48.740;9.106;2023-04-01T03:25:22;7.40;99.90
4487;DHT22;2256;48.740;9.106;2023-04-01T03:27:49;7.40;99.90
4487;DHT22;2256;48.740;9.106;2023-04-01T03:30:17;7.30;99.90
4487;DHT22;2256;48.740;9.106;2023-04-01T03:32:45;7.20;99.90
4487;DHT22;2256;48.740;9.106;2023-04-01T03:35:12;7.30;99.90
4487;DHT22;2256;48.740;9.106;2023-04-01T03:37:39;7.40;99.90
4487;DHT22;2256;48.740;9.106;2023-04-01T03:40:08;7.40;99.90
4487;DHT22;2256;48.740;9.106;2023-04-01T03:42:35;7.40;99.90
4487;DHT22;2256;48.740;9.106;2023-04-01T03:45:02;7.40;99.90
4487;DHT22;2256;48.740;9.106;2023-04-01T03:47:31;7.40;99.90
4487;DHT22;2256;48.740;9.106;2023-04-01T03:49:57;7.30;99.90
4487;DHT22;2256;48.740;9.106;2023-04-01T03:52:24;7.20;99.90
4487;DHT22;2256;48.740;9.106;2023-04-01T03:54:51;7.20;99.90
4487;DHT22;2256;48.740;9.106;2023-04-01T03:57:18;7.30;99.90
4487;DHT22;2256;48.740;9.106;2023-04-01T03:59:45;7.30;99.90
4487;DHT22;2256;48.740;9.106;2023-04-01T04:02:13;7.30;99.90
4487;DHT22;2256;48.740;9.106;2023-04-01T04:04:41;7.00;99.90
4487;DHT22;2256;48.740;9.106;2023-04-01T04:07:09;7.10;99.90
4487;DHT22;2256;48.740;9.106;2023-04-01T04:09:36;7.00;99.90
4487;DHT22;2256;48.740;9.106;2023-04-01T04:12:03;7.00;99.90
4487;DHT22;2256;48.740;9.106;2023-04-01T04:14:31;7.00;99.90
4487;DHT22;2256;48.740;9.106;2023-04-01T04:17:00;7.00;99.90
4487;DHT22;2256;48.740;9.106;2023-04-01T04:19:31;7.00;99.90
4487;DHT22;2256;48.740;9.106;2023-04-01T04:22:00;6.90;99.90
4487;DHT22;2256;48.740;9.106;2023-04-01T04:24:29;7.00;99.90
4487;DHT22;2256;48.740;9.106;2023-04-01T04:26:57;6.90;99.90
4487;DHT22;2256;48.740;9.106;2023-04-01T04:29:29;6.90;99.90
4487;DHT22;2256;48.740;9.106;2023-04-01T04:31:56;6.90;99.90
4487;DHT22;2256;48.740;9.106;2023-04-01T04:34:29;6.70;99.90
4487;DHT22;2256;48.740;9.106;2023-04-01T04:36:55;6.70;99.90
4487;DHT22;2256;48.740;9.106;2023-04-01T04:39:28;6.70;99.90
4487;DHT22;2256;48.740;9.106;2023-04-01T04:41:55;6.60;99.90
4487;DHT22;2256;48.740;9.106;2023-04-01T04:44:22;6.70;99.90
4487;DHT22;2256;48.740;9.106;2023-04-01T04:46:48;6.60;99.90
4487;DHT22;2256;48.740;9.106;2023-04-01T04:49:16;6.60;99.90
4487;DHT22;2256;48.740;9.106;2023-04-01T04:51:48;6.70;99.90
4487;DHT22;2256;48.740;9.106;2023-04-01T04:54:15;6.60;99.90
4487;DHT22;2256;48.740;9.106;2023-04-01T04:56:44;6.60;99.90
4487;DHT22;2256;48.740;9.106;2023-04-01T04:59:10;6.70;99.90
4487;DHT22;2256;48.740;9.106;2023-04-01T05:01:39;6.70;99.90
4487;DHT22;2256;48.740;9.106;2023-04-01T05:04:05;6.70;99.90
4487;DHT22;2256;48.740;9.106;2023-04-01T05:06:32;6.60;99.90
4487;DHT22;2256;48.740;9.106;2023-04-01T05:08:59;6.80;99.90
4487;DHT22;2256;48.740;9.106;2023-04-01T05:11:26;6.80;99.90
4487;DHT22;2256;48.740;9.106;2023-04-01T05:13:55;6.80;99.90
4487;DHT22;2256;48.740;9.106;2023-04-01T05:16:22;7.00;99.90
4487;DHT22;2256;48.740;9.106;2023-04-01T05:18:50;6.90;99.90
4487;DHT22;2256;48.740;9.106;2023-04-01T05:21:18;6.90;99.90
4487;DHT22;2256;48.740;9.106;2023-04-01T05:23:45;7.00;99.90
4487;DHT22;2256;48.740;9.106;2023-04-01T05:26:14;7.10;99.90
4487;DHT22;2256;48.740;9.106;2023-04-01T05:28:42;7.20;99.90
4487;DHT22;2256;48.740;9.106;2023-04-01T05:31:11;7.20;99.90
4487;DHT22;2256;48.740;9.106;2023-04-01T05:33:39;7.30;99.90
4487;DHT22;2256;48.740;9.106;2023-04-01T05:36:07;7.40;99.90
4487;DHT22;2256;48.740;9.106;2023-04-01T05:38:39;7.50;99.90
4487;DHT22;2256;48.740;9.106;2023-04-01T05:41:07;7.70;99.90
4487;DHT22;2256;48.740;9.106;2023-04-01T05:43:35;7.70;99.90
4487;DHT22;2256;48.740;9.106;2023-04-01T05:46:03;7.70;99.90
4487;DHT22;2256;48.740;9.106;2023-04-01T05:48:33;7.70;99.90
4487;DHT22;2256;48.740;9.106;2023-04-01T05:51:00;7.80;99.90
4487;DHT22;2256;48.740;9.106;2023-04-01T05:53:27;7.90;99.90
4487;DHT22;2256;48.740;9.106;2023-04-01T05:55:54;8.00;99.90
4487;DHT22;2256;48.740;9.106;2023-04-01T05:58:22;8.00;99.90
4487;DHT22;2256;48.740;9.106;2023-04-01T06:00:48;8.10;99.90
4487;DHT22;2256;48.740;9.106;2023-04-01T06:03:16;8.20;99.90
4487;DHT22;2256;48.740;9.106;2023-04-01T06:05:44;8.40;99.90
4487;DHT22;2256;48.740;9.106;2023-04-01T06:08:13;8.40;99.90
4487;DHT22;2256;48.740;9.106;2023-04-01T06:10:55;8.60;99.90
4487;DHT22;2256;48.740;9.106;2023-04-01T06:13:38;8.70;99.90
4487;DHT22;2256;48.740;9.106;2023-04-01T06:16:10;8.90;99.90
4487;DHT22;2256;48.740;9.106;2023-04-01T06:18:59;9.10;99.90
4487;DHT22;2256;48.740;9.106;2023-04-01T06:24:47;9.30;99.90
4487;DHT22;2256;48.740;9.106;2023-04-01T06:27:27;9.30;99.90
4487;DHT22;2256;48.740;9.106;2023-04-01T06:30:10;9.30;99.90
4487;DHT22;2256;48.740;9.106;2023-04-01T06:32:56;9.10;99.90
4487;DHT22;2256;48.740;9.106;2023-04-01T06:35:44;9.00;99.90
4487;DHT22;2256;48.740;9.106;2023-04-01T06:38:51;8.90;99.90
4487;DHT22;2256;48.740;9.106;2023-04-01T06:41:32;8.90;99.90
4487;DHT22;2256;48.740;9.106;2023-04-01T06:44:13;8.80;99.90
4487;DHT22;2256;48.740;9.106;2023-04-01T06:46:47;8.90;99.90
4487;DHT22;2256;48.740;9.106;2023-04-01T06:49:28;8.80;99.90
4487;DHT22;2256;48.740;9.106;2023-04-01T06:52:03;8.80;99.90
4487;DHT22;2256;48.740;9.106;2023-04-01T06:54:37;8.80;99.90
4487;DHT22;2256;48.740;9.106;2023-04-01T06:57:11;8.90;99.90
4487;DHT22;2256;48.740;9.106;2023-04-01T06:59:43;9.00;99.90
4487;DHT22;2256;48.740;9.106;2023-04-01T07:02:22;8.90;99.90
4487;DHT22;2256;48.740;9.106;2023-04-01T07:04:51;8.90;99.90
4487;DHT22;2256;48.740;9.106;2023-04-01T07:07:26;9.00;99.90
4487;DHT22;2256;48.740;9.106;2023-04-01T07:09:59;8.90;99.90
4487;DHT22;2256;48.740;9.106;2023-04-01T07:12:43;9.00;99.90
4487;DHT22;2256;48.740;9.106;2023-04-01T07:15:17;9.10;99.90
4487;DHT22;2256;48.740;9.106;2023-04-01T07:17:48;9.10;99.90
4487;DHT22;2256;48.740;9.106;2023-04-01T07:20:20;9.10;99.90
4487;DHT22;2256;48.740;9.106;2023-04-01T07:22:52;9.00;99.90
4487;DHT22;2256;48.740;9.106;2023-04-01T07:25:24;9.00;99.90
4487;DHT22;2256;48.740;9.106;2023-04-01T07:27:53;9.20;99.90
4487;DHT22;2256;48.740;9.106;2023-04-01T07:30:23;9.20;99.90
4487;DHT22;2256;48.740;9.106;2023-04-01T07:32:54;9.10;99.90
4487;DHT22;2256;48.740;9.106;2023-04-01T07:35:26;9.00;99.90
4487;DHT22;2256;48.740;9.106;2023-04-01T07:38:10;8.90;99.90
4487;DHT22;2256;48.740;9.106;2023-04-01T07:40:46;9.00;99.90
4487;DHT22;2256;48.740;9.106;2023-04-01T07:46:29;8.90;99.90
4487;DHT22;2256;48.740;9.106;2023-04-01T07:49:04;8.80;99.90
4487;DHT22;2256;48.740;9.106;2023-04-01T07:51:37;8.80;99.90
4487;DHT22;2256;48.740;9.106;2023-04-01T07:54:14;8.90;99.90
4487;DHT22;2256;48.740;9.106;2023-04-01T07:56:51;9.10;99.90
4487;DHT22;2256;48.740;9.106;2023-04-01T07:59:25;9.30;99.90
4487;DHT22;2256;48.740;9.106;2023-04-01T08:02:04;9.40;99.90
4487;DHT22;2256;48.740;9.106;2023-04-01T08:04:50;9.50;99.90
4487;DHT22;2256;48.740;9.106;2023-04-01T08:07:21;9.60;99.90
4487;DHT22;2256;48.740;9.106;2023-04-01T08:09:55;9.70;99.90
4487;DHT22;2256;48.740;9.106;2023-04-01T08:12:36;9.80;99.90
4487;DHT22;2256;48.740;9.106;2023-04-01T08:15:16;9.90;99.90
4487;DHT22;2256;48.740;9.106;2023-04-01T08:17:53;9.90;99.90
4487;DHT22;2256;48.740;9.106;2023-04-01T08:20:28;9.90;99.90
4487;DHT22;2256;48.740;9.106;2023-04-01T08:23:04;9.80;99.90
4487;DHT22;2256;48.740;9.106;2023-04-01T08:25:34;9.60;99.90
4487;DHT22;2256;48.740;9.106;2023-04-01T08:28:13;9.70;99.90
4487;DHT22;2256;48.740;9.106;2023-04-01T08:30:45;9.80;99.90
4487;DHT22;2256;48.740;9.106;2023-04-01T08:33:17;9.70;99.90
4487;DHT22;2256;48.740;9.106;2023-04-01T08:35:49;9.60;99.90
4487;DHT22;2256;48.740;9.106;2023-04-01T08:38:19;9.50;99.90
4487;DHT22;2256;48.740;9.106;2023-04-01T08:41:07;9.50;99.90
4487;DHT22;2256;48.740;9.106;2023-04-01T08:43:59;9.40;99.90
4487;DHT22;2256;48.740;9.106;2023-04-01T08:47:05;9.30;99.90
4487;DHT22;2256;48.740;9.106;2023-04-01T08:49:56;9.00;99.90
4487;DHT22;2256;48.740;9.106;2023-04-01T08:52:35;8.80;99.90
4487;DHT22;2256;48.740;9.106;2023-04-01T08:55:22;8.70;99.90
4487;DHT22;2256;48.740;9.106;2023-04-01T08:58:08;8.70;99.90
4487;DHT22;2256;48.740;9.106;2023-04-01T09:00:47;8.70;99.90
4487;DHT22;2256;48.740;9.106;2023-04-01T09:03:37;8.60;99.90
4487;DHT22;2256;48.740;9.106;2023-04-01T09:06:31;8.60;99.90
4487;DHT22;2256;48.740;9.106;2023-04-01T09:09:35;8.60;99.90
4487;DHT22;2256;48.740;9.106;2023-04-01T09:12:24;8.90;99.90
4487;DHT22;2256;48.740;9.106;2023-04-01T09:15:15;9.30;99.90
4487;DHT22;2256;48.740;9.106;2023-04-01T09:20:45;9.90;99.90
4487;DHT22;2256;48.740;9.106;2023-04-01T09:23:26;10.70;99.90
4487;DHT22;2256;48.740;9.106;2023-04-01T09:26:07;10.50;99.90
4487;DHT22;2256;48.740;9.106;2023-04-01T09:28:42;10.70;99.90
4487;DHT22;2256;48.740;9.106;2023-04-01T09:31:25;11.00;99.90
4487;DHT22;2256;48.740;9.106;2023-04-01T09:34:25;11.20;99.90
4487;DHT22;2256;48.740;9.106;2023-04-01T09:37:09;11.00;99.90
4487;DHT22;2256;48.740;9.106;2023-04-01T09:39:53;10.70;99.90
4487;DHT22;2256;48.740;9.106;2023-04-01T09:42:42;10.50;99.90
4487;DHT22;2256;48.740;9.106;2023-04-01T09:45:21;10.40;99.90
4487;DHT22;2256;48.740;9.106;2023-04-01T09:48:00;10.30;99.90
4487;DHT22;2256;48.740;9.106;2023-04-01T09:50:38;10.30;99.90
4487;DHT22;2256;48.740;9.106;2023-04-01T09:53:33;10.20;99.90
4487;DHT22;2256;48.740;9.106;2023-04-01T09:56:33;10.20;99.90
4487;DHT22;2256;48.740;9.106;2023-04-01T10:05:39;10.10;99.90
4487;DHT22;2256;48.740;9.106;2023-04-01T10:08:26;10.00;99.90
4487;DHT22;2256;48.740;9.106;2023-04-01T10:11:15;10.10;99.90
4487;DHT22;2256;48.740;9.106;2023-04-01T10:23:11;10.50;99.90
4487;DHT22;2256;48.740;9.106;2023-04-01T10:25:59;10.70;99.90
4487;DHT22;2256;48.740;9.106;2023-04-01T10:28:54;10.80;99.90
4487;DHT22;2256;48.740;9.106;2023-04-01T10:31:43;11.00;99.90
4487;DHT22;2256;48.740;9.106;2023-04-01T10:37:55;11.70;99.90
4487;DHT22;2256;48.740;9.106;2023-04-01T10:40:43;12.00;99.90
4487;DHT22;2256;48.740;9.106;2023-04-01T10:49:43;12.00;99.90
4487;DHT22;2256;48.740;9.106;2023-04-01T10:52:40;11.70;99.90
4487;DHT22;2256;48.740;9.106;2023-04-01T10:55:37;11.40;99.90
4487;DHT22;2256;48.740;9.106;2023-04-01T10:58:47;11.40;99.90
4487;DHT22;2256;48.740;9.106;2023-04-01T11:01:45;11.20;99.90
4487;DHT22;2256;48.740;9.106;2023-04-01T11:05:06;11.00;99.90
4487;DHT22;2256;48.740;9.106;2023-04-01T11:08:14;10.80;99.90
4487;DHT22;2256;48.740;9.106;2023-04-01T11:11:20;10.60;99.90
4487;DHT22;2256;48.740;9.106;2023-04-01T11:23:01;10.80;99.90
4487;DHT22;2256;48.740;9.106;2023-04-01T11:26:08;11.00;99.90
4487;DHT22;2256;48.740;9.106;2023-04-01T11:28:49;11.10;99.90
4487;DHT22;2256;48.740;9.106;2023-04-01T11:31:38;11.10;99.90
4487;DHT22;2256;48.740;9.106;2023-04-01T11:34:16;11.20;99.90
4487;DHT22;2256;48.740;9.106;2023-04-01T11:36:59;11.30;99.90
4487;DHT22;2256;48.740;9.106;2023-04-01T11:39:33;11.30;99.90
4487;DHT22;2256;48.740;9.106;2023-04-01T11:42:17;11.40;99.90
4487;DHT22;2256;48.740;9.106;2023-04-01T11:44:53;11.50;99.90
4487;DHT22;2256;48.740;9.106;2023-04-01T11:47:45;11.50;99.90
4487;DHT22;2256;48.740;9.106;2023-04-01T11:50:28;11.50;99.90
4487;DHT22;2256;48.740;9.106;2023-04-01T11:53:15;11.30;99.90
4487;DHT22;2256;48.740;9.106;2023-04-01T11:55:56;11.10;99.90
4487;DHT22;2256;48.740;9.106;2023-04-01T12:01:49;10.70;99.90
4487;DHT22;2256;48.740;9.106;2023-04-01T12:04:45;10.80;99.90
4487;DHT22;2256;48.740;9.106;2023-04-01T12:07:28;11.00;99.90
4487;DHT22;2256;48.740;9.106;2023-04-01T12:10:05;10.90;99.90
4487;DHT22;2256;48.740;9.106;2023-04-01T12:12:42;11.00;99.90
4487;DHT22;2256;48.740;9.106;2023-04-01T12:15:21;11.20;99.90
4487;DHT22;2256;48.740;9.106;2023-04-01T12:17:55;11.10;99.90
4487;DHT22;2256;48.740;9.106;2023-04-01T12:20:39;11.00;99.90
4487;DHT22;2256;48.740;9.106;2023-04-01T12:23:27;11.10;99.90
4487;DHT22;2256;48.740;9.106;2023-04-01T12:26:23;11.10;99.90
4487;DHT22;2256;48.740;9.106;2023-04-01T12:29:09;11.10;99.90
4487;DHT22;2256;48.740;9.106;2023-04-01T12:31:47;11.10;99.90
4487;DHT22;2256;48.740;9.106;2023-04-01T12:37:34;11.40;99.90
4487;DHT22;2256;48.740;9.106;2023-04-01T12:40:22;11.40;99.90
4487;DHT22;2256;48.740;9.106;2023-04-01T12:43:11;11.60;99.90
4487;DHT22;2256;48.740;9.106;2023-04-01T12:45:49;11.70;99.90
4487;DHT22;2256;48.740;9.106;2023-04-01T12:48:59;12.00;99.90
4487;DHT22;2256;48.740;9.106;2023-04-01T12:51:45;11.90;99.90
4487;DHT22;2256;48.740;9.106;2023-04-01T12:54:41;12.00;99.90
4487;DHT22;2256;48.740;9.106;2023-04-01T12:57:45;12.00;99.90
4487;DHT22;2256;48.740;9.106;2023-04-01T13:00:30;12.10;99.90
4487;DHT22;2256;48.740;9.106;2023-04-01T13:03:16;12.30;99.90
4487;DHT22;2256;48.740;9.106;2023-04-01T13:08:50;12.30;99.90
4487;DHT22;2256;48.740;9.106;2023-04-01T13:11:27;12.00;99.90
4487;DHT22;2256;48.740;9.106;2023-04-01T13:14:19;11.90;99.90
4487;DHT22;2256;48.740;9.106;2023-04-01T13:16:55;11.70;99.90
4487;DHT22;2256;48.740;9.106;2023-04-01T13:19:29;11.40;99.90
4487;DHT22;2256;48.740;9.106;2023-04-01T13:22:04;11.30;99.90
4487;DHT22;2256;48.740;9.106;2023-04-01T13:24:41;11.40;99.90
4487;DHT22;2256;48.740;9.106;2023-04-01T13:27:18;11.30;99.90
4487;DHT22;2256;48.740;9.106;2023-04-01T13:29:56;11.30;99.90
4487;DHT22;2256;48.740;9.106;2023-04-01T13:32:30;11.40;99.90
4487;DHT22;2256;48.740;9.106;2023-04-01T13:35:15;11.60;99.90
4487;DHT22;2256;48.740;9.106;2023-04-01T13:37:59;11.60;99.90
4487;DHT22;2256;48.740;9.106;2023-04-01T13:40:35;11.50;99.90
4487;DHT22;2256;48.740;9.106;2023-04-01T13:43:14;11.40;99.90
4487;DHT22;2256;48.740;9.106;2023-04-01T13:46:06;11.30;99.90
4487;DHT22;2256;48.740;9.106;2023-04-01T13:48:57;11.30;99.90
4487;DHT22;2256;48.740;9.106;2023-04-01T13:51:47;11.30;99.90
4487;DHT22;2256;48.740;9.106;2023-04-01T13:54:46;11.40;99.90
4487;DHT22;2256;48.740;9.106;2023-04-01T13:57:35;11.50;99.90
4487;DHT22;2256;48.740;9.106;2023-04-01T14:00:45;11.50;99.90
4487;DHT22;2256;48.740;9.106;2023-04-01T14:03:28;11.70;99.90
4487;DHT22;2256;48.740;9.106;2023-04-01T14:06:16;11.80;99.90
4487;DHT22;2256;48.740;9.106;2023-04-01T14:09:08;11.60;99.90
4487;DHT22;2256;48.740;9.106;2023-04-01T14:11:55;11.30;99.90
4487;DHT22;2256;48.740;9.106;2023-04-01T14:14:35;11.30;99.90
4487;DHT22;2256;48.740;9.106;2023-04-01T14:17:17;11.30;99.90
4487;DHT22;2256;48.740;9.106;2023-04-01T14:26:03;11.20;99.90
4487;DHT22;2256;48.740;9.106;2023-04-01T14:28:38;11.10;99.90
4487;DHT22;2256;48.740;9.106;2023-04-01T14:31:26;11.10;99.90
4487;DHT22;2256;48.740;9.106;2023-04-01T14:34:09;11.10;99.90
4487;DHT22;2256;48.740;9.106;2023-04-01T14:39:48;11.10;99.90
4487;DHT22;2256;48.740;9.106;2023-04-01T14:42:36;11.00;99.90
4487;DHT22;2256;48.740;9.106;2023-04-01T14:45:40;11.00;99.90
4487;DHT22;2256;48.740;9.106;2023-04-01T14:48:23;11.00;99.90
4487;DHT22;2256;48.740;9.106;2023-04-01T14:50:55;11.00;99.90
4487;DHT22;2256;48.740;9.106;2023-04-01T14:53:28;11.10;99.90
4487;DHT22;2256;48.740;9.106;2023-04-01T14:55:57;10.90;99.90
4487;DHT22;2256;48.740;9.106;2023-04-01T14:58:43;10.90;99.90
4487;DHT22;2256;48.740;9.106;2023-04-01T15:01:26;11.00;99.90
4487;DHT22;2256;48.740;9.106;2023-04-01T15:04:12;10.90;99.90
4487;DHT22;2256;48.740;9.106;2023-04-01T15:07:03;11.00;99.90
4487;DHT22;2256;48.740;9.106;2023-04-01T15:09:37;11.00;99.90
4487;DHT22;2256;48.740;9.106;2023-04-01T15:12:19;11.00;99.90
4487;DHT22;2256;48.740;9.106;2023-04-01T15:15:09;11.00;99.90
4487;DHT22;2256;48.740;9.106;2023-04-01T15:17:47;10.90;99.90
4487;DHT22;2256;48.740;9.106;2023-04-01T15:20:41;10.90;99.90
4487;DHT22;2256;48.740;9.106;2023-04-01T15:23:24;11.00;99.90
4487;DHT22;2256;48.740;9.106;2023-04-01T15:26:23;11.00;99.90
4487;DHT22;2256;48.740;9.106;2023-04-01T15:29:08;10.90;99.90
4487;DHT22;2256;48.740;9.106;2023-04-01T15:31:43;10.80;99.90
4487;DHT22;2256;48.740;9.106;2023-04-01T15:34:23;10.90;99.90
4487;DHT22;2256;48.740;9.106;2023-04-01T15:36:57;10.80;99.90
4487;DHT22;2256;48.740;9.106;2023-04-01T15:39:38;10.70;99.90
4487;DHT22;2256;48.740;9.106;2023-04-01T15:45:16;10.80;99.90
4487;DHT22;2256;48.740;9.106;2023-04-01T15:47:46;10.90;99.90
4487;DHT22;2256;48.740;9.106;2023-04-01T15:50:36;11.00;99.90
4487;DHT22;2256;48.740;9.106;2023-04-01T15:53:18;10.80;99.90
4487;DHT22;2256;48.740;9.106;2023-04-01T15:55:51;10.70;99.90
4487;DHT22;2256;48.740;9.106;2023-04-01T15:58:40;10.70;99.90
4487;DHT22;2256;48.740;9.106;2023-04-01T16:01:19;10.50;99.90
4487;DHT22;2256;48.740;9.106;2023-04-01T16:03:54;10.60;99.90
4487;DHT22;2256;48.740;9.106;2023-04-01T16:06:47;10.60;99.90
4487;DHT22;2256;48.740;9.106;2023-04-01T16:09:31;10.70;99.90
4487;DHT22;2256;48.740;9.106;2023-04-01T16:12:10;10.60;99.90
4487;DHT22;2256;48.740;9.106;2023-04-01T16:14:46;10.50;99.90
4487;DHT22;2256;48.740;9.106;2023-04-01T16:17:27;10.40;99.90
4487;DHT22;2256;48.740;9.106;2023-04-01T16:19:59;10.30;99.90
4487;DHT22;2256;48.740;9.106;2023-04-01T16:22:32;10.30;99.90
4487;DHT22;2256;48.740;9.106;2023-04-01T16:25:17;10.30;99.90
4487;DHT22;2256;48.740;9.106;2023-04-01T16:27:53;10.30;99.90
4487;DHT22;2256;48.740;9.106;2023-04-01T16:30:32;10.30;99.90
4487;DHT22;2256;48.740;9.106;2023-04-01T16:33:03;10.30;99.90
4487;DHT22;2256;48.740;9.106;2023-04-01T16:35:41;10.30;99.90
4487;DHT22;2256;48.740;9.106;2023-04-01T16:38:16;10.30;99.90
4487;DHT22;2256;48.740;9.106;2023-04-01T16:40:53;10.30;99.90
4487;DHT22;2256;48.740;9.106;2023-04-01T16:43:30;10.30;99.90
4487;DHT22;2256;48.740;9.106;2023-04-01T16:46:27;10.20;99.90
4487;DHT22;2256;48.740;9.106;2023-04-01T16:49:04;10.30;99.90
4487;DHT22;2256;48.740;9.106;2023-04-01T16:51:46;10.30;99.90
4487;DHT22;2256;48.740;9.106;2023-04-01T16:54:18;10.30;99.90
4487;DHT22;2256;48.740;9.106;2023-04-01T16:56:55;10.20;99.90
4487;DHT22;2256;48.740;9.106;2023-04-01T16:59:29;10.20;99.90
4487;DHT22;2256;48.740;9.106;2023-04-01T17:02:07;10.20;99.90
4487;DHT22;2256;48.740;9.106;2023-04-01T17:04:39;10.20;99.90
4487;DHT22;2256;48.740;9.106;2023-04-01T17:07:18;10.10;99.90
4487;DHT22;2256;48.740;9.106;2023-04-01T17:10:02;10.10;99.90
4487;DHT22;2256;48.740;9.106;2023-04-01T17:12:35;10.10;99.90
4487;DHT22;2256;48.740;9.106;2023-04-01T17:15:15;10.10;99.90
4487;DHT22;2256;48.740;9.106;2023-04-01T17:17:50;10.00;99.90
4487;DHT22;2256;48.740;9.106;2023-04-01T17:20:35;9.90;99.90
4487;DHT22;2256;48.740;9.106;2023-04-01T17:23:14;9.90;99.90
4487;DHT22;2256;48.740;9.106;2023-04-01T17:26:07;9.80;99.90
4487;DHT22;2256;48.740;9.106;2023-04-01T17:28:44;9.80;99.90
4487;DHT22;2256;48.740;9.106;2023-04-01T17:31:21;9.80;99.90
4487;DHT22;2256;48.740;9.106;2023-04-01T17:34:02;9.80;99.90
4487;DHT22;2256;48.740;9.106;2023-04-01T17:36:47;9.70;99.90
4487;DHT22;2256;48.740;9.106;2023-04-01T17:39:32;9.60;99.90
4487;DHT22;2256;48.740;9.106;2023-04-01T17:42:06;9.60;99.90
4487;DHT22;2256;48.740;9.106;2023-04-01T17:44:45;9.60;99.90
4487;DHT22;2256;48.740;9.106;2023-04-01T17:47:29;9.70;99.90
4487;DHT22;2256;48.740;9.106;2023-04-01T17:50:08;9.70;99.90
4487;DHT22;2256;48.740;9.106;2023-04-01T17:52:42;9.70;99.90
4487;DHT22;2256;48.740;9.106;2023-04-01T17:55:32;9.70;99.90
4487;DHT22;2256;48.740;9.106;2023-04-01T17:58:13;9.80;99.90
4487;DHT22;2256;48.740;9.106;2023-04-01T18:00:51;9.80;99.90
4487;DHT22;2256;48.740;9.106;2023-04-01T18:03:24;9.70;99.90
4487;DHT22;2256;48.740;9.106;2023-04-01T18:06:02;9.70;99.90
4487;DHT22;2256;48.740;9.106;2023-04-01T18:08:47;9.70;99.90
4487;DHT22;2256;48.740;9.106;2023-04-01T18:11:25;9.60;99.90
4487;DHT22;2256;48.740;9.106;2023-04-01T18:17:21;9.60;99.90
4487;DHT22;2256;48.740;9.106;2023-04-01T18:20:11;9.60;99.90
4487;DHT22;2256;48.740;9.106;2023-04-01T18:22:45;9.50;99.90
4487;DHT22;2256;48.740;9.106;2023-04-01T18:25:19;9.30;99.90
4487;DHT22;2256;48.740;9.106;2023-04-01T18:27:50;9.20;99.90